Aérodrome :







RETROUVEZ-NOUS SUR...

 
LOGIN :

S'inscrire | Disclaimer

   EN    FR    IT 

 









Légende :    VFR   VFR Marginal   IFR   IFR Intensif   IFR Très Intensif
Visi : 
Plafond : 
>= 8 km
>= 3000ft
5 à 8 km
1000 à 3000 ft
1500m à 5 km
500 à 1000 ft
800 à 1500m
200 à 500 ft
< 800m
< 200 ft
Symboles :   Orages  Brouillard  Fortes neiges  Fortes précipitations  Vent > 20 kt






- Altitude de l'aérodrome : 180 ft
- Code IATA : YZV


CYZV - Sept-Iles

DERNIER METAR :
  • 150240Z 08022G33KT 1SM R09/5500VP6000FT/U -SN DRSN VV004 M00/M01 A2948 RMK SN8 PRESFR SLP987

METARs EXPIRÉS :
  • 150200Z 08024G36KT 3/4SM R09/4500VP6000FT/U -SN DRSN VV004 M00/M01 A2955 RMK SN8 PRESFR SLP011
  • 150100Z 08016G28KT 3/4SM R09/4000V5500FT/D -SN DRSN VV004 M01/M02 A2964 RMK SN8 SLP043
  • 150051Z 08019G28KT 3/4SM R09/5000VP6000FT/D -SN DRSN VV004 M01/M02 A2966 RMK SN8 PRESFR SLP048
  • 150000Z 08016G28KT 1SM R09/P6000FT/U -SN VV009 M00/M01 A2971 RMK SN8 PRESFR SLP065

TAF TAF CYZV
Valide du 15 à 00h jusqu'au 16 à 00h UTC


142338Z 1500/1524 09020G30KT 3/4SM -SN VV006
TEMPO 1500/1505 3SM -SNPL OVC010
PROB40 1503/1505 6SM -FZRA BR
FM150500 08025G35KT 21/2SM -RASN -PL OVC006
TEMPO 1505/1509 6SM -FZRA BR OVC012
FM150900 08020G30KT 2SM -RA BR BKN004 OVC008
PROB30 1512/1516 1/2SM -RA FG VV002
BECMG 1516/1518 22025G35KT
FM152000 26020G30KT 11/2SM -SN OVC008 RMK NXT FCST BY 150600Z



MET'MAP, la Météo Aéronautique d'un coup d'oeil ! - Copyright ORBIFLY Décembre 2007 - Disclaimer

ORBIFLY MET'MAP TEAM :

Programmation & Développement : Alexandra Zaïnal
Sur une idée originale de : Baudouin d'Aumeries
Assistance à la programmation : Marc-Olivier Méhu
Soutien technique & logistique : Manuel Goepfert

Contact : metmap@orbifly.com




SOURCES & CREDITS :

   NOAA